sensor_id;sensor_type;location;lat;lon;timestamp;pressure;altitude;pressure_sealevel;temperature;humidity
48563;BME280;34981;49.104;11.396;2022-08-02T00:01:18;95784.28;;;19.76;73.64
48563;BME280;34981;49.104;11.396;2022-08-02T00:08:28;95786.91;;;19.72;73.18
48563;BME280;34981;49.104;11.396;2022-08-02T00:15:28;95782.84;;;19.58;73.59
48563;BME280;34981;49.104;11.396;2022-08-02T00:17:55;95786.41;;;19.50;73.95
48563;BME280;34981;49.104;11.396;2022-08-02T00:20:22;95790.88;;;19.45;76.69
48563;BME280;34981;49.104;11.396;2022-08-02T00:22:49;95793.81;;;19.40;75.76
48563;BME280;34981;49.104;11.396;2022-08-02T00:25:16;95787.22;;;19.41;75.02
48563;BME280;34981;49.104;11.396;2022-08-02T00:27:43;95785.63;;;19.40;75.00
48563;BME280;34981;49.104;11.396;2022-08-02T00:30:10;95789.94;;;19.41;74.48
48563;BME280;34981;49.104;11.396;2022-08-02T00:32:38;95784.50;;;19.41;75.52
48563;BME280;34981;49.104;11.396;2022-08-02T00:35:05;95784.34;;;19.38;75.67
48563;BME280;34981;49.104;11.396;2022-08-02T00:37:32;95784.22;;;19.34;76.33
48563;BME280;34981;49.104;11.396;2022-08-02T00:40:04;95788.91;;;19.25;76.90
48563;BME280;34981;49.104;11.396;2022-08-02T00:42:31;95788.16;;;19.16;77.27
48563;BME280;34981;49.104;11.396;2022-08-02T00:44:58;95790.59;;;19.09;77.39
48563;BME280;34981;49.104;11.396;2022-08-02T00:47:25;95798.63;;;19.05;77.15
48563;BME280;34981;49.104;11.396;2022-08-02T00:49:52;95791.91;;;19.03;76.22
48563;BME280;34981;49.104;11.396;2022-08-02T00:52:19;95794.94;;;19.01;76.29
48563;BME280;34981;49.104;11.396;2022-08-02T00:54:47;95804.59;;;18.99;75.95
48563;BME280;34981;49.104;11.396;2022-08-02T00:57:15;95797.53;;;18.98;75.67
48563;BME280;34981;49.104;11.396;2022-08-02T00:59:42;95797.66;;;19.01;75.53
48563;BME280;34981;49.104;11.396;2022-08-02T01:02:09;95799.13;;;18.99;76.32
48563;BME280;34981;49.104;11.396;2022-08-02T01:04:37;95792.72;;;18.95;75.88
48563;BME280;34981;49.104;11.396;2022-08-02T01:07:04;95791.78;;;18.91;77.72
48563;BME280;34981;49.104;11.396;2022-08-02T01:09:40;95803.34;;;18.79;78.95
48563;BME280;34981;49.104;11.396;2022-08-02T01:12:07;95789.59;;;18.76;77.29
48563;BME280;34981;49.104;11.396;2022-08-02T01:14:35;95791.22;;;18.77;76.92
48563;BME280;34981;49.104;11.396;2022-08-02T01:17:07;95789.59;;;18.76;76.62
48563;BME280;34981;49.104;11.396;2022-08-02T01:19:42;95793.16;;;18.67;78.24
48563;BME280;34981;49.104;11.396;2022-08-02T01:25:28;95795.72;;;18.55;77.78
48563;BME280;34981;49.104;11.396;2022-08-02T01:30:27;95786.09;;;18.49;77.37
48563;BME280;34981;49.104;11.396;2022-08-02T01:32:57;95786.59;;;18.43;78.53
48563;BME280;34981;49.104;11.396;2022-08-02T01:35:27;95789.81;;;18.36;78.77
48563;BME280;34981;49.104;11.396;2022-08-02T01:38:13;95789.81;;;18.36;77.31
48563;BME280;34981;49.104;11.396;2022-08-02T01:40:43;95793.03;;;18.38;77.72
48563;BME280;34981;49.104;11.396;2022-08-02T01:43:10;95795.88;;;18.42;77.54
48563;BME280;34981;49.104;11.396;2022-08-02T01:45:42;95791.09;;;18.39;76.77
48563;BME280;34981;49.104;11.396;2022-08-02T01:48:10;95792.84;;;18.35;75.04
48563;BME280;34981;49.104;11.396;2022-08-02T01:50:38;95784.25;;;18.24;75.19
48563;BME280;34981;49.104;11.396;2022-08-02T01:53:07;95787.94;;;17.94;79.06
48563;BME280;34981;49.104;11.396;2022-08-02T01:55:44;95784.59;;;17.88;79.33
48563;BME280;34981;49.104;11.396;2022-08-02T01:58:28;95783.78;;;17.79;80.26
48563;BME280;34981;49.104;11.396;2022-08-02T02:00:57;95777.03;;;17.76;80.58
48563;BME280;34981;49.104;11.396;2022-08-02T02:03:26;95770.47;;;17.69;81.65
48563;BME280;34981;49.104;11.396;2022-08-02T02:05:56;95764.72;;;17.70;80.63
48563;BME280;34981;49.104;11.396;2022-08-02T02:08:28;95777.03;;;17.76;80.00
48563;BME280;34981;49.104;11.396;2022-08-02T02:10:56;95780.44;;;17.82;78.69
48563;BME280;34981;49.104;11.396;2022-08-02T02:13:44;95782.66;;;17.88;78.39
48563;BME280;34981;49.104;11.396;2022-08-02T02:16:13;95783.63;;;17.93;78.78
48563;BME280;34981;49.104;11.396;2022-08-02T02:18:41;95782.19;;;17.95;78.33
48563;BME280;34981;49.104;11.396;2022-08-02T02:21:12;95786.16;;;17.98;79.06
48563;BME280;34981;49.104;11.396;2022-08-02T02:23:39;95790.34;;;18.04;78.12
48563;BME280;34981;49.104;11.396;2022-08-02T02:26:07;95796.59;;;18.04;78.24
48563;BME280;34981;49.104;11.396;2022-08-02T02:28:36;95796.59;;;18.04;78.08
48563;BME280;34981;49.104;11.396;2022-08-02T02:31:06;95799.63;;;18.03;77.76
48563;BME280;34981;49.104;11.396;2022-08-02T02:33:38;95801.22;;;18.04;78.38
48563;BME280;34981;49.104;11.396;2022-08-02T02:36:06;95798.03;;;18.02;78.15
48563;BME280;34981;49.104;11.396;2022-08-02T02:38:34;95799.94;;;18.01;78.59
48563;BME280;34981;49.104;11.396;2022-08-02T02:41:02;95798.03;;;18.02;78.46
48563;BME280;34981;49.104;11.396;2022-08-02T02:43:31;95801.06;;;18.00;78.62
48563;BME280;34981;49.104;11.396;2022-08-02T02:45:59;95805.88;;;18.03;78.25
48563;BME280;34981;49.104;11.396;2022-08-02T02:48:27;95809.38;;;18.04;79.19
48563;BME280;34981;49.104;11.396;2022-08-02T02:50:55;95815.28;;;18.06;77.99
48563;BME280;34981;49.104;11.396;2022-08-02T02:53:23;95815.63;;;18.04;78.28
48563;BME280;34981;49.104;11.396;2022-08-02T02:55:50;95810.97;;;18.05;78.43
48563;BME280;34981;49.104;11.396;2022-08-02T02:58:29;95810.97;;;18.05;78.42
48563;BME280;34981;49.104;11.396;2022-08-02T03:00:56;95809.84;;;18.06;78.25
48563;BME280;34981;49.104;11.396;2022-08-02T03:03:42;95815.44;;;18.01;79.33
48563;BME280;34981;49.104;11.396;2022-08-02T03:06:10;95825.03;;;17.98;79.56
48563;BME280;34981;49.104;11.396;2022-08-02T03:08:42;95826.50;;;17.96;79.56
48563;BME280;34981;49.104;11.396;2022-08-02T03:11:09;95822.66;;;17.97;79.51
48563;BME280;34981;49.104;11.396;2022-08-02T03:13:37;95815.28;;;17.97;78.90
48563;BME280;34981;49.104;11.396;2022-08-02T03:16:05;95817.84;;;17.94;80.19
48563;BME280;34981;49.104;11.396;2022-08-02T03:18:36;95820.75;;;17.88;81.38
48563;BME280;34981;49.104;11.396;2022-08-02T03:21:03;95829.03;;;17.83;80.46
48563;BME280;34981;49.104;11.396;2022-08-02T03:23:31;95830.50;;;17.81;80.08
48563;BME280;34981;49.104;11.396;2022-08-02T03:25:59;95834.31;;;17.80;80.94
48563;BME280;34981;49.104;11.396;2022-08-02T03:28:26;95830.31;;;17.77;80.64
48563;BME280;34981;49.104;11.396;2022-08-02T03:30:54;95829.03;;;17.75;81.54
48563;BME280;34981;49.104;11.396;2022-08-02T03:33:21;95824.06;;;17.68;82.52
48563;BME280;34981;49.104;11.396;2022-08-02T03:35:50;95821.63;;;17.58;83.58
48563;BME280;34981;49.104;11.396;2022-08-02T03:38:18;95819.84;;;17.45;85.80
48563;BME280;34981;49.104;11.396;2022-08-02T03:40:47;95819.34;;;17.43;85.24
48563;BME280;34981;49.104;11.396;2022-08-02T03:43:15;95816.13;;;17.41;85.51
48563;BME280;34981;49.104;11.396;2022-08-02T03:45:43;95818.69;;;17.46;84.62
48563;BME280;34981;49.104;11.396;2022-08-02T03:48:14;95821.28;;;17.51;83.94
48563;BME280;34981;49.104;11.396;2022-08-02T03:51:01;95819.84;;;17.53;83.47
48563;BME280;34981;49.104;11.396;2022-08-02T03:53:28;95808.53;;;17.60;82.40
48563;BME280;34981;49.104;11.396;2022-08-02T03:55:56;95811.25;;;17.60;81.87
48563;BME280;34981;49.104;11.396;2022-08-02T03:58:23;95810.13;;;17.61;83.33
48563;BME280;34981;49.104;11.396;2022-08-02T04:00:51;95805.47;;;17.53;84.75
48563;BME280;34981;49.104;11.396;2022-08-02T04:03:19;95812.81;;;17.52;83.94
48563;BME280;34981;49.104;11.396;2022-08-02T04:05:46;95820.81;;;17.58;84.16
48563;BME280;34981;49.104;11.396;2022-08-02T04:08:32;95818.91;;;17.58;84.14
48563;BME280;34981;49.104;11.396;2022-08-02T04:11:05;95817.44;;;17.61;83.88
48563;BME280;34981;49.104;11.396;2022-08-02T04:14:14;95825.31;;;17.62;83.25
48563;BME280;34981;49.104;11.396;2022-08-02T04:19:09;95829.34;;;17.65;84.59
48563;BME280;34981;49.104;11.396;2022-08-02T04:25:37;95827.75;;;17.72;83.05
48563;BME280;34981;49.104;11.396;2022-08-02T04:28:07;95825.19;;;17.67;85.52
48563;BME280;34981;49.104;11.396;2022-08-02T04:30:45;95829.66;;;17.63;84.27
48563;BME280;34981;49.104;11.396;2022-08-02T04:33:12;95836.69;;;17.64;84.75
48563;BME280;34981;49.104;11.396;2022-08-02T04:36:18;95841.97;;;17.69;84.14
48563;BME280;34981;49.104;11.396;2022-08-02T04:38:57;95849.19;;;17.74;85.20
48563;BME280;34981;49.104;11.396;2022-08-02T04:44:36;95847.59;;;17.81;84.73
48563;BME280;34981;49.104;11.396;2022-08-02T04:47:03;95850.16;;;17.86;85.49
48563;BME280;34981;49.104;11.396;2022-08-02T04:49:57;95860.41;;;17.98;86.21
48563;BME280;34981;49.104;11.396;2022-08-02T04:52:24;95856.91;;;18.15;86.29
48563;BME280;34981;49.104;11.396;2022-08-02T04:57:45;95866.16;;;18.48;84.62
48563;BME280;34981;49.104;11.396;2022-08-02T05:00:22;95866.19;;;18.65;86.06
48563;BME280;34981;49.104;11.396;2022-08-02T05:02:49;95865.19;;;18.79;84.32
48563;BME280;34981;49.104;11.396;2022-08-02T05:05:18;95870.94;;;18.94;82.07
48563;BME280;34981;49.104;11.396;2022-08-02T05:07:45;95870.56;;;19.13;82.70
48563;BME280;34981;49.104;11.396;2022-08-02T05:10:12;95870.66;;;19.34;82.73
48563;BME280;34981;49.104;11.396;2022-08-02T05:12:40;95865.94;;;19.52;80.65
48563;BME280;34981;49.104;11.396;2022-08-02T05:15:08;95871.66;;;19.59;80.80
48563;BME280;34981;49.104;11.396;2022-08-02T05:17:39;95868.25;;;19.70;80.98
48563;BME280;34981;49.104;11.396;2022-08-02T05:20:44;95869.88;;;19.92;80.15
48563;BME280;34981;49.104;11.396;2022-08-02T05:23:11;95877.50;;;20.07;80.48
48563;BME280;34981;49.104;11.396;2022-08-02T05:25:39;95878.69;;;20.18;80.05
48563;BME280;34981;49.104;11.396;2022-08-02T05:28:06;95876.03;;;20.31;78.83
48563;BME280;34981;49.104;11.396;2022-08-02T05:30:38;95875.25;;;20.51;77.61
48563;BME280;34981;49.104;11.396;2022-08-02T05:33:10;95875.28;;;20.63;77.16
48563;BME280;34981;49.104;11.396;2022-08-02T05:35:37;95864.00;;;20.85;76.30
48563;BME280;34981;49.104;11.396;2022-08-02T05:38:04;95877.13;;;21.04;75.96
48563;BME280;34981;49.104;11.396;2022-08-02T05:40:36;95886.72;;;21.10;75.18
48563;BME280;34981;49.104;11.396;2022-08-02T05:43:20;95878.59;;;21.34;74.52
48563;BME280;34981;49.104;11.396;2022-08-02T05:45:49;95885.91;;;21.55;74.00
48563;BME280;34981;49.104;11.396;2022-08-02T05:48:18;95870.97;;;21.77;73.78
48563;BME280;34981;49.104;11.396;2022-08-02T05:50:46;95880.53;;;22.07;72.39
48563;BME280;34981;49.104;11.396;2022-08-02T05:53:27;95878.91;;;22.30;70.68
48563;BME280;34981;49.104;11.396;2022-08-02T05:56:05;95873.63;;;22.37;70.72
48563;BME280;34981;49.104;11.396;2022-08-02T05:58:37;95884.84;;;22.32;70.90
48563;BME280;34981;49.104;11.396;2022-08-02T06:01:07;95877.91;;;22.50;69.82
48563;BME280;34981;49.104;11.396;2022-08-02T06:03:43;95882.66;;;22.78;69.00
48563;BME280;34981;49.104;11.396;2022-08-02T06:06:15;95892.09;;;22.93;68.15
48563;BME280;34981;49.104;11.396;2022-08-02T06:08:49;95884.50;;;22.74;67.86
48563;BME280;34981;49.104;11.396;2022-08-02T06:14:30;95881.88;;;22.65;67.41
48563;BME280;34981;49.104;11.396;2022-08-02T06:16:57;95885.75;;;22.76;68.13
48563;BME280;34981;49.104;11.396;2022-08-02T06:19:25;95887.25;;;22.74;67.21
48563;BME280;34981;49.104;11.396;2022-08-02T06:21:52;95888.00;;;22.86;67.26
48563;BME280;34981;49.104;11.396;2022-08-02T06:24:44;95893.81;;;22.73;67.36
48563;BME280;34981;49.104;11.396;2022-08-02T06:27:12;95887.19;;;22.86;67.09
48563;BME280;34981;49.104;11.396;2022-08-02T06:29:39;95894.91;;;22.96;66.78
48563;BME280;34981;49.104;11.396;2022-08-02T06:32:07;95894.69;;;23.01;66.73
48563;BME280;34981;49.104;11.396;2022-08-02T06:34:36;95890.06;;;23.05;66.14
48563;BME280;34981;49.104;11.396;2022-08-02T06:38:05;95878.59;;;23.15;65.01
48563;BME280;34981;49.104;11.396;2022-08-02T06:40:02;95875.13;;;23.18;64.64
48563;BME280;34981;49.104;11.396;2022-08-02T06:45:08;95879.69;;;23.42;63.77
48563;BME280;34981;49.104;11.396;2022-08-02T06:47:35;95879.09;;;23.49;61.94
48563;BME280;34981;49.104;11.396;2022-08-02T06:50:03;95878.91;;;23.73;60.95
48563;BME280;34981;49.104;11.396;2022-08-02T06:52:30;95877.03;;;23.93;60.33
48563;BME280;34981;49.104;11.396;2022-08-02T06:54:58;95880.44;;;24.05;59.59
48563;BME280;34981;49.104;11.396;2022-08-02T06:57:26;95882.31;;;24.01;59.73
48563;BME280;34981;49.104;11.396;2022-08-02T06:59:53;95879.91;;;24.16;60.24
48563;BME280;34981;49.104;11.396;2022-08-02T07:02:20;95879.34;;;24.26;60.87
48563;BME280;34981;49.104;11.396;2022-08-02T07:04:48;95881.84;;;24.31;60.86
48563;BME280;34981;49.104;11.396;2022-08-02T07:07:17;95877.06;;;24.28;60.30
48563;BME280;34981;49.104;11.396;2022-08-02T07:09:45;95881.16;;;24.53;59.51
48563;BME280;34981;49.104;11.396;2022-08-02T07:12:27;95888.22;;;24.73;59.22
48563;BME280;34981;49.104;11.396;2022-08-02T07:14:54;95887.22;;;24.81;58.02
48563;BME280;34981;49.104;11.396;2022-08-02T07:17:21;95890.19;;;25.11;57.90
48563;BME280;34981;49.104;11.396;2022-08-02T07:19:48;95894.13;;;25.33;58.35
48563;BME280;34981;49.104;11.396;2022-08-02T07:22:15;95898.16;;;25.39;57.03
48563;BME280;34981;49.104;11.396;2022-08-02T07:24:44;95891.88;;;25.39;55.65
48563;BME280;34981;49.104;11.396;2022-08-02T07:27:11;95885.69;;;25.45;57.21
48563;BME280;34981;49.104;11.396;2022-08-02T07:29:40;95884.28;;;25.55;56.13
48563;BME280;34981;49.104;11.396;2022-08-02T07:32:19;95883.69;;;25.65;56.27
48563;BME280;34981;49.104;11.396;2022-08-02T07:34:47;95883.53;;;25.77;56.46
48563;BME280;34981;49.104;11.396;2022-08-02T07:37:23;95882.47;;;25.85;55.45
48563;BME280;34981;49.104;11.396;2022-08-02T07:40:11;95881.78;;;25.92;55.42
48563;BME280;34981;49.104;11.396;2022-08-02T07:42:43;95884.72;;;25.80;54.93
48563;BME280;34981;49.104;11.396;2022-08-02T07:45:11;95881.03;;;25.95;54.95
48563;BME280;34981;49.104;11.396;2022-08-02T07:47:39;95876.63;;;26.17;55.17
48563;BME280;34981;49.104;11.396;2022-08-02T07:50:06;95863.84;;;26.28;54.86
48563;BME280;34981;49.104;11.396;2022-08-02T07:52:34;95866.19;;;26.03;54.31
48563;BME280;34981;49.104;11.396;2022-08-02T07:55:01;95868.75;;;26.15;54.70
48563;BME280;34981;49.104;11.396;2022-08-02T07:57:34;95859.50;;;26.27;54.25
48563;BME280;34981;49.104;11.396;2022-08-02T08:00:02;95862.84;;;26.17;53.16
48563;BME280;34981;49.104;11.396;2022-08-02T08:02:37;95865.44;;;26.29;53.93
48563;BME280;34981;49.104;11.396;2022-08-02T08:05:33;95868.66;;;26.34;53.96
48563;BME280;34981;49.104;11.396;2022-08-02T08:08:00;95866.72;;;26.39;53.27
48563;BME280;34981;49.104;11.396;2022-08-02T08:10:28;95866.91;;;26.53;51.00
48563;BME280;34981;49.104;11.396;2022-08-02T08:12:55;95867.69;;;26.50;51.97
48563;BME280;34981;49.104;11.396;2022-08-02T08:15:22;95867.72;;;26.53;52.94
48563;BME280;34981;49.104;11.396;2022-08-02T08:17:49;95866.38;;;26.70;53.11
48563;BME280;34981;49.104;11.396;2022-08-02T08:20:16;95861.00;;;26.84;49.83
48563;BME280;34981;49.104;11.396;2022-08-02T08:22:43;95859.41;;;26.83;51.06
48563;BME280;34981;49.104;11.396;2022-08-02T08:25:10;95870.72;;;27.04;52.22
48563;BME280;34981;49.104;11.396;2022-08-02T08:27:45;95871.66;;;27.16;49.91
48563;BME280;34981;49.104;11.396;2022-08-02T08:30:13;95868.38;;;27.03;49.38
48563;BME280;34981;49.104;11.396;2022-08-02T08:32:40;95871.06;;;26.99;50.16
48563;BME280;34981;49.104;11.396;2022-08-02T08:35:07;95868.19;;;27.26;48.21
48563;BME280;34981;49.104;11.396;2022-08-02T08:37:35;95868.38;;;27.06;49.00
48563;BME280;34981;49.104;11.396;2022-08-02T08:40:09;95876.81;;;27.17;48.61
48563;BME280;34981;49.104;11.396;2022-08-02T08:42:45;95872.31;;;27.05;48.50
48563;BME280;34981;49.104;11.396;2022-08-02T08:45:12;95871.78;;;27.30;48.50
48563;BME280;34981;49.104;11.396;2022-08-02T08:47:40;95878.94;;;27.34;48.68
48563;BME280;34981;49.104;11.396;2022-08-02T08:52:47;95878.50;;;27.69;47.62
48563;BME280;34981;49.104;11.396;2022-08-02T08:55:15;95885.84;;;27.99;45.74
48563;BME280;34981;49.104;11.396;2022-08-02T09:01:38;95883.78;;;27.44;47.65
48563;BME280;34981;49.104;11.396;2022-08-02T09:04:17;95885.47;;;27.19;47.99
48563;BME280;34981;49.104;11.396;2022-08-02T09:06:44;95882.13;;;27.36;46.18
48563;BME280;34981;49.104;11.396;2022-08-02T09:09:11;95876.16;;;27.71;44.93
48563;BME280;34981;49.104;11.396;2022-08-02T09:11:39;95877.84;;;27.83;45.00
48563;BME280;34981;49.104;11.396;2022-08-02T09:14:06;95872.44;;;27.97;44.01
48563;BME280;34981;49.104;11.396;2022-08-02T09:16:34;95874.16;;;28.16;42.77
48563;BME280;34981;49.104;11.396;2022-08-02T09:19:21;95873.97;;;27.98;43.49
48563;BME280;34981;49.104;11.396;2022-08-02T09:21:50;95868.72;;;28.30;44.44
48563;BME280;34981;49.104;11.396;2022-08-02T09:24:18;95873.63;;;28.61;43.05
48563;BME280;34981;49.104;11.396;2022-08-02T09:26:46;95871.66;;;28.65;41.91
48563;BME280;34981;49.104;11.396;2022-08-02T09:29:14;95875.00;;;28.92;40.82
48563;BME280;34981;49.104;11.396;2022-08-02T09:31:41;95870.66;;;29.02;41.11
48563;BME280;34981;49.104;11.396;2022-08-02T09:34:15;95877.75;;;28.96;40.65
48563;BME280;34981;49.104;11.396;2022-08-02T09:36:46;95878.13;;;28.91;40.72
48563;BME280;34981;49.104;11.396;2022-08-02T09:39:20;95878.94;;;28.91;38.81
48563;BME280;34981;49.104;11.396;2022-08-02T09:41:49;95883.34;;;29.10;40.46
48563;BME280;34981;49.104;11.396;2022-08-02T09:44:16;95886.41;;;28.84;39.61
48563;BME280;34981;49.104;11.396;2022-08-02T09:46:44;95888.25;;;28.65;40.43
48563;BME280;34981;49.104;11.396;2022-08-02T09:49:15;95885.50;;;28.65;41.67
48563;BME280;34981;49.104;11.396;2022-08-02T09:54:23;95885.72;;;29.15;40.76
48563;BME280;34981;49.104;11.396;2022-08-02T09:56:52;95873.06;;;29.18;41.30
48563;BME280;34981;49.104;11.396;2022-08-02T09:59:20;95888.19;;;29.34;39.91
48563;BME280;34981;49.104;11.396;2022-08-02T10:01:49;95882.66;;;29.45;40.38
48563;BME280;34981;49.104;11.396;2022-08-02T10:04:36;95884.28;;;29.78;40.06
48563;BME280;34981;49.104;11.396;2022-08-02T10:07:20;95881.09;;;29.90;38.55
48563;BME280;34981;49.104;11.396;2022-08-02T10:09:50;95884.66;;;29.91;38.80
48563;BME280;34981;49.104;11.396;2022-08-02T10:12:18;95878.00;;;29.95;37.29
48563;BME280;34981;49.104;11.396;2022-08-02T10:14:45;95864.50;;;30.01;38.10
48563;BME280;34981;49.104;11.396;2022-08-02T10:17:18;95864.47;;;29.76;39.50
48563;BME280;34981;49.104;11.396;2022-08-02T10:19:45;95868.81;;;29.73;38.09
48563;BME280;34981;49.104;11.396;2022-08-02T10:22:29;95864.84;;;29.35;38.76
48563;BME280;34981;49.104;11.396;2022-08-02T10:24:56;95854.97;;;29.59;39.08
48563;BME280;34981;49.104;11.396;2022-08-02T10:27:23;95855.69;;;29.14;39.35
48563;BME280;34981;49.104;11.396;2022-08-02T10:30:14;95854.94;;;29.45;39.62
48563;BME280;34981;49.104;11.396;2022-08-02T10:32:42;95848.16;;;29.07;39.52
48563;BME280;34981;49.104;11.396;2022-08-02T10:35:11;95856.00;;;28.94;39.59
48563;BME280;34981;49.104;11.396;2022-08-02T10:38:00;95847.69;;;28.91;40.11
48563;BME280;34981;49.104;11.396;2022-08-02T10:40:48;95846.47;;;28.78;40.34
48563;BME280;34981;49.104;11.396;2022-08-02T10:43:50;95838.63;;;28.18;41.22
48563;BME280;34981;49.104;11.396;2022-08-02T10:54:33;95833.19;;;28.32;40.95
48563;BME280;34981;49.104;11.396;2022-08-02T10:57:01;95842.81;;;27.98;43.01
48563;BME280;34981;49.104;11.396;2022-08-02T10:59:35;95833.03;;;28.14;42.23
48563;BME280;34981;49.104;11.396;2022-08-02T11:07:19;95831.72;;;28.56;41.00
48563;BME280;34981;49.104;11.396;2022-08-02T11:12:56;95826.94;;;28.49;40.19
48563;BME280;34981;49.104;11.396;2022-08-02T11:15:24;95839.94;;;28.38;41.07
48563;BME280;34981;49.104;11.396;2022-08-02T11:17:52;95837.19;;;28.45;40.84
48563;BME280;34981;49.104;11.396;2022-08-02T11:20:20;95834.53;;;28.66;39.88
48563;BME280;34981;49.104;11.396;2022-08-02T11:29:04;95831.34;;;28.64;39.64
48563;BME280;34981;49.104;11.396;2022-08-02T11:34:57;95833.72;;;28.66;38.94
48563;BME280;34981;49.104;11.396;2022-08-02T11:37:28;95827.91;;;28.82;39.19
48563;BME280;34981;49.104;11.396;2022-08-02T11:39:55;95824.63;;;28.65;39.47
48563;BME280;34981;49.104;11.396;2022-08-02T11:42:35;95825.03;;;28.64;39.95
48563;BME280;34981;49.104;11.396;2022-08-02T11:45:03;95822.63;;;28.55;39.82
48563;BME280;34981;49.104;11.396;2022-08-02T11:47:31;95822.66;;;28.66;39.75
48563;BME280;34981;49.104;11.396;2022-08-02T11:50:05;95820.56;;;28.38;39.70
48563;BME280;34981;49.104;11.396;2022-08-02T11:52:35;95815.06;;;28.45;39.73
48563;BME280;34981;49.104;11.396;2022-08-02T11:58:39;95802.44;;;28.48;41.35
48563;BME280;34981;49.104;11.396;2022-08-02T12:01:07;95808.47;;;28.75;39.87
48563;BME280;34981;49.104;11.396;2022-08-02T12:03:36;95797.00;;;28.73;38.60
48563;BME280;34981;49.104;11.396;2022-08-02T12:06:04;95801.00;;;28.06;38.90
48563;BME280;34981;49.104;11.396;2022-08-02T12:08:36;95797.09;;;28.11;39.73
48563;BME280;34981;49.104;11.396;2022-08-02T12:11:04;95794.41;;;28.18;39.92
48563;BME280;34981;49.104;11.396;2022-08-02T12:13:44;95801.66;;;28.47;39.30
48563;BME280;34981;49.104;11.396;2022-08-02T12:16:23;95798.50;;;28.52;39.39
48563;BME280;34981;49.104;11.396;2022-08-02T12:19:09;95791.06;;;28.63;38.16
48563;BME280;34981;49.104;11.396;2022-08-02T12:21:45;95797.78;;;28.62;38.29
48563;BME280;34981;49.104;11.396;2022-08-02T12:24:12;95804.78;;;28.42;38.29
48563;BME280;34981;49.104;11.396;2022-08-02T12:26:46;95800.88;;;28.50;38.33
48563;BME280;34981;49.104;11.396;2022-08-02T12:29:14;95799.31;;;28.53;39.38
48563;BME280;34981;49.104;11.396;2022-08-02T12:32:01;95796.81;;;28.30;38.77
48563;BME280;34981;49.104;11.396;2022-08-02T12:34:29;95793.69;;;28.32;38.10
48563;BME280;34981;49.104;11.396;2022-08-02T12:37:05;95792.13;;;28.38;38.64
48563;BME280;34981;49.104;11.396;2022-08-02T12:39:45;95792.56;;;28.50;38.54
48563;BME280;34981;49.104;11.396;2022-08-02T12:45:04;95786.34;;;28.75;37.11
48563;BME280;34981;49.104;11.396;2022-08-02T12:47:33;95781.56;;;28.72;37.83
48563;BME280;34981;49.104;11.396;2022-08-02T12:52:37;95780.00;;;28.74;37.48
48563;BME280;34981;49.104;11.396;2022-08-02T12:55:16;95773.28;;;28.72;37.82
48563;BME280;34981;49.104;11.396;2022-08-02T12:57:54;95784.28;;;28.50;37.33
48563;BME280;34981;49.104;11.396;2022-08-02T13:00:23;95773.19;;;28.43;37.12
48563;BME280;34981;49.104;11.396;2022-08-02T13:02:50;95766.91;;;28.57;37.65
48563;BME280;34981;49.104;11.396;2022-08-02T13:05:18;95771.69;;;28.56;37.33
48563;BME280;34981;49.104;11.396;2022-08-02T13:07:45;95768.94;;;28.63;36.77
48563;BME280;34981;49.104;11.396;2022-08-02T13:10:12;95774.47;;;28.71;37.71
48563;BME280;34981;49.104;11.396;2022-08-02T13:12:39;95768.53;;;28.61;36.81
48563;BME280;34981;49.104;11.396;2022-08-02T13:15:06;95770.63;;;29.00;36.26
48563;BME280;34981;49.104;11.396;2022-08-02T13:17:54;95772.25;;;29.33;35.11
48563;BME280;34981;49.104;11.396;2022-08-02T13:20:21;95764.31;;;28.99;35.28
48563;BME280;34981;49.104;11.396;2022-08-02T13:22:50;95765.50;;;29.16;36.02
48563;BME280;34981;49.104;11.396;2022-08-02T13:34:09;95759.97;;;29.30;34.24
48563;BME280;34981;49.104;11.396;2022-08-02T13:36:36;95750.47;;;29.31;34.40
48563;BME280;34981;49.104;11.396;2022-08-02T13:42:01;95752.03;;;29.00;35.32
48563;BME280;34981;49.104;11.396;2022-08-02T13:44:28;95741.75;;;28.94;35.59
48563;BME280;34981;49.104;11.396;2022-08-02T13:46:56;95749.69;;;29.13;34.91
48563;BME280;34981;49.104;11.396;2022-08-02T13:49:23;95743.75;;;29.08;34.16
48563;BME280;34981;49.104;11.396;2022-08-02T13:52:16;95741.38;;;29.24;34.85
48563;BME280;34981;49.104;11.396;2022-08-02T13:54:43;95739.03;;;29.22;35.43
48563;BME280;34981;49.104;11.396;2022-08-02T13:57:10;95746.16;;;29.37;34.08
48563;BME280;34981;49.104;11.396;2022-08-02T14:03:04;95736.66;;;29.21;34.84
48563;BME280;34981;49.104;11.396;2022-08-02T14:08:26;95738.66;;;29.34;33.65
48563;BME280;34981;49.104;11.396;2022-08-02T14:12:05;95728.38;;;29.35;33.28
48563;BME280;34981;49.104;11.396;2022-08-02T14:14:32;95726.34;;;29.03;32.61
48563;BME280;34981;49.104;11.396;2022-08-02T14:16:59;95727.53;;;28.99;33.18
48563;BME280;34981;49.104;11.396;2022-08-02T14:19:27;95727.53;;;29.17;33.40
48563;BME280;34981;49.104;11.396;2022-08-02T14:21:54;95732.25;;;29.02;34.24
48563;BME280;34981;49.104;11.396;2022-08-02T14:24:38;95729.13;;;29.11;34.10
48563;BME280;34981;49.104;11.396;2022-08-02T14:27:05;95728.31;;;28.96;33.95
48563;BME280;34981;49.104;11.396;2022-08-02T14:29:35;95725.13;;;28.94;34.01
48563;BME280;34981;49.104;11.396;2022-08-02T14:32:02;95727.53;;;29.10;32.86
48563;BME280;34981;49.104;11.396;2022-08-02T14:34:29;95722.81;;;29.38;32.82
48563;BME280;34981;49.104;11.396;2022-08-02T14:36:58;95717.25;;;29.60;32.59
48563;BME280;34981;49.104;11.396;2022-08-02T14:39:25;95724.38;;;29.54;30.87
48563;BME280;34981;49.104;11.396;2022-08-02T14:41:52;95720.03;;;29.38;33.19
48563;BME280;34981;49.104;11.396;2022-08-02T14:44:29;95720.31;;;28.59;34.88
48563;BME280;34981;49.104;11.396;2022-08-02T14:46:56;95718.69;;;28.40;36.08